sensor_id;sensor_type;location;lat;lon;timestamp;temperature;humidity
262;DHT22;114;48.260;10.988;2023-07-09T00:02:13;16.90;31.70
262;DHT22;114;48.260;10.988;2023-07-09T00:04:39;16.80;32.30
262;DHT22;114;48.260;10.988;2023-07-09T00:07:08;16.70;32.60
262;DHT22;114;48.260;10.988;2023-07-09T00:09:37;16.70;33.40
262;DHT22;114;48.260;10.988;2023-07-09T00:12:02;16.70;32.60
262;DHT22;114;48.260;10.988;2023-07-09T00:14:28;16.70;32.00
262;DHT22;114;48.260;10.988;2023-07-09T00:16:54;16.60;32.00
262;DHT22;114;48.260;10.988;2023-07-09T00:19:21;16.60;33.40
262;DHT22;114;48.260;10.988;2023-07-09T00:21:51;16.50;34.70
262;DHT22;114;48.260;10.988;2023-07-09T00:24:19;16.50;36.70
262;DHT22;114;48.260;10.988;2023-07-09T00:26:45;16.40;37.40
262;DHT22;114;48.260;10.988;2023-07-09T00:29:15;16.40;38.20
262;DHT22;114;48.260;10.988;2023-07-09T00:31:40;16.30;39.00
262;DHT22;114;48.260;10.988;2023-07-09T00:34:12;16.30;39.20
262;DHT22;114;48.260;10.988;2023-07-09T00:36:38;16.20;39.10
262;DHT22;114;48.260;10.988;2023-07-09T00:39:04;16.20;39.50
262;DHT22;114;48.260;10.988;2023-07-09T00:41:35;16.20;38.70
262;DHT22;114;48.260;10.988;2023-07-09T00:44:30;16.20;38.30
262;DHT22;114;48.260;10.988;2023-07-09T00:49:40;16.10;39.60
262;DHT22;114;48.260;10.988;2023-07-09T00:54:50;16.10;41.10
262;DHT22;114;48.260;10.988;2023-07-09T00:57:20;16.00;42.00
262;DHT22;114;48.260;10.988;2023-07-09T00:59:50;16.00;42.40
262;DHT22;114;48.260;10.988;2023-07-09T01:02:17;16.00;42.90
262;DHT22;114;48.260;10.988;2023-07-09T01:04:49;16.00;43.60
262;DHT22;114;48.260;10.988;2023-07-09T01:07:16;15.90;44.10
262;DHT22;114;48.260;10.988;2023-07-09T01:09:42;15.90;45.30
262;DHT22;114;48.260;10.988;2023-07-09T01:12:09;15.90;46.60
262;DHT22;114;48.260;10.988;2023-07-09T01:14:35;15.80;46.40
262;DHT22;114;48.260;10.988;2023-07-09T01:17:05;15.80;46.70
262;DHT22;114;48.260;10.988;2023-07-09T01:19:43;15.70;47.80
262;DHT22;114;48.260;10.988;2023-07-09T01:22:12;15.70;47.80
262;DHT22;114;48.260;10.988;2023-07-09T01:27:13;15.70;49.50
262;DHT22;114;48.260;10.988;2023-07-09T01:29:40;15.60;50.00
262;DHT22;114;48.260;10.988;2023-07-09T01:32:07;15.60;50.50
262;DHT22;114;48.260;10.988;2023-07-09T01:34:33;15.60;51.20
262;DHT22;114;48.260;10.988;2023-07-09T01:36:59;15.60;51.30
262;DHT22;114;48.260;10.988;2023-07-09T01:39:27;15.60;51.60
262;DHT22;114;48.260;10.988;2023-07-09T01:41:55;15.60;51.80
262;DHT22;114;48.260;10.988;2023-07-09T01:44:22;15.60;53.20
262;DHT22;114;48.260;10.988;2023-07-09T01:46:49;15.50;53.00
262;DHT22;114;48.260;10.988;2023-07-09T01:49:14;15.50;52.70
262;DHT22;114;48.260;10.988;2023-07-09T01:51:42;15.50;52.30
262;DHT22;114;48.260;10.988;2023-07-09T01:54:08;15.50;53.10
262;DHT22;114;48.260;10.988;2023-07-09T01:56:33;15.50;53.50
262;DHT22;114;48.260;10.988;2023-07-09T01:59:00;15.40;53.60
262;DHT22;114;48.260;10.988;2023-07-09T02:01:28;15.40;53.90
262;DHT22;114;48.260;10.988;2023-07-09T02:03:54;15.40;54.70
262;DHT22;114;48.260;10.988;2023-07-09T02:06:20;15.40;54.90
262;DHT22;114;48.260;10.988;2023-07-09T02:08:45;15.40;55.60
262;DHT22;114;48.260;10.988;2023-07-09T02:11:11;15.30;55.70
262;DHT22;114;48.260;10.988;2023-07-09T02:13:37;15.40;56.40
262;DHT22;114;48.260;10.988;2023-07-09T02:16:03;15.30;56.00
262;DHT22;114;48.260;10.988;2023-07-09T02:18:29;15.30;56.60
262;DHT22;114;48.260;10.988;2023-07-09T02:20:55;15.30;57.00
262;DHT22;114;48.260;10.988;2023-07-09T02:23:26;15.30;57.40
262;DHT22;114;48.260;10.988;2023-07-09T02:25:52;15.20;57.50
262;DHT22;114;48.260;10.988;2023-07-09T02:28:18;15.20;58.00
262;DHT22;114;48.260;10.988;2023-07-09T02:30:43;15.20;58.70
262;DHT22;114;48.260;10.988;2023-07-09T02:33:09;15.20;58.80
262;DHT22;114;48.260;10.988;2023-07-09T02:35:34;15.20;59.40
262;DHT22;114;48.260;10.988;2023-07-09T02:38:02;15.20;59.50
262;DHT22;114;48.260;10.988;2023-07-09T02:40:27;15.20;60.20
262;DHT22;114;48.260;10.988;2023-07-09T02:42:54;15.10;60.10
262;DHT22;114;48.260;10.988;2023-07-09T02:45:20;15.20;60.10
262;DHT22;114;48.260;10.988;2023-07-09T02:47:46;15.10;60.00
262;DHT22;114;48.260;10.988;2023-07-09T02:50:11;15.10;60.00
262;DHT22;114;48.260;10.988;2023-07-09T02:52:37;15.10;59.50
262;DHT22;114;48.260;10.988;2023-07-09T02:55:03;15.10;60.20
262;DHT22;114;48.260;10.988;2023-07-09T02:57:29;15.10;60.20
262;DHT22;114;48.260;10.988;2023-07-09T02:59:55;15.10;60.90
262;DHT22;114;48.260;10.988;2023-07-09T03:02:20;15.10;60.30
262;DHT22;114;48.260;10.988;2023-07-09T03:04:46;15.10;60.80
262;DHT22;114;48.260;10.988;2023-07-09T03:07:12;15.10;61.20
262;DHT22;114;48.260;10.988;2023-07-09T03:09:38;15.00;61.20
262;DHT22;114;48.260;10.988;2023-07-09T03:12:04;15.00;61.60
262;DHT22;114;48.260;10.988;2023-07-09T03:14:29;15.00;61.10
262;DHT22;114;48.260;10.988;2023-07-09T03:16:55;15.00;62.00
262;DHT22;114;48.260;10.988;2023-07-09T03:19:21;15.00;62.20
262;DHT22;114;48.260;10.988;2023-07-09T03:21:47;14.90;62.40
262;DHT22;114;48.260;10.988;2023-07-09T03:24:13;14.90;62.60
262;DHT22;114;48.260;10.988;2023-07-09T03:26:45;14.90;63.00
262;DHT22;114;48.260;10.988;2023-07-09T03:29:11;14.90;64.00
262;DHT22;114;48.260;10.988;2023-07-09T03:31:37;14.90;64.70
262;DHT22;114;48.260;10.988;2023-07-09T03:34:03;14.90;65.20
262;DHT22;114;48.260;10.988;2023-07-09T03:36:28;14.80;65.40
262;DHT22;114;48.260;10.988;2023-07-09T03:38:54;14.90;65.70
262;DHT22;114;48.260;10.988;2023-07-09T03:41:20;14.90;66.10
262;DHT22;114;48.260;10.988;2023-07-09T03:43:46;14.90;66.10
262;DHT22;114;48.260;10.988;2023-07-09T03:46:12;14.90;66.00
262;DHT22;114;48.260;10.988;2023-07-09T03:48:38;14.90;65.90
262;DHT22;114;48.260;10.988;2023-07-09T03:51:04;14.90;66.60
262;DHT22;114;48.260;10.988;2023-07-09T03:53:29;15.00;66.90
262;DHT22;114;48.260;10.988;2023-07-09T03:55:56;15.00;66.00
262;DHT22;114;48.260;10.988;2023-07-09T03:58:23;15.10;66.00
262;DHT22;114;48.260;10.988;2023-07-09T04:00:48;15.20;66.20
262;DHT22;114;48.260;10.988;2023-07-09T04:03:14;15.20;65.40
262;DHT22;114;48.260;10.988;2023-07-09T04:05:40;15.30;64.20
262;DHT22;114;48.260;10.988;2023-07-09T04:08:06;15.30;62.90
262;DHT22;114;48.260;10.988;2023-07-09T04:10:31;15.40;61.60
262;DHT22;114;48.260;10.988;2023-07-09T04:12:57;15.40;60.50
262;DHT22;114;48.260;10.988;2023-07-09T04:15:23;15.50;59.20
262;DHT22;114;48.260;10.988;2023-07-09T04:17:49;15.50;58.50
262;DHT22;114;48.260;10.988;2023-07-09T04:20:15;15.50;57.40
262;DHT22;114;48.260;10.988;2023-07-09T04:22:41;15.60;57.50
262;DHT22;114;48.260;10.988;2023-07-09T04:25:09;15.70;56.20
262;DHT22;114;48.260;10.988;2023-07-09T04:27:37;15.70;54.70
262;DHT22;114;48.260;10.988;2023-07-09T04:30:03;15.80;52.00
262;DHT22;114;48.260;10.988;2023-07-09T04:32:30;15.80;50.80
262;DHT22;114;48.260;10.988;2023-07-09T04:34:56;15.90;48.80
262;DHT22;114;48.260;10.988;2023-07-09T04:37:22;16.00;46.90
262;DHT22;114;48.260;10.988;2023-07-09T04:39:48;16.00;46.70
262;DHT22;114;48.260;10.988;2023-07-09T04:42:16;16.00;45.30
262;DHT22;114;48.260;10.988;2023-07-09T04:44:42;16.10;44.80
262;DHT22;114;48.260;10.988;2023-07-09T04:47:13;16.20;44.90
262;DHT22;114;48.260;10.988;2023-07-09T04:49:39;16.30;45.10
262;DHT22;114;48.260;10.988;2023-07-09T04:52:05;16.40;43.90
262;DHT22;114;48.260;10.988;2023-07-09T04:54:31;16.50;42.00
262;DHT22;114;48.260;10.988;2023-07-09T04:56:58;16.70;43.40
262;DHT22;114;48.260;10.988;2023-07-09T04:59:24;16.90;41.60
262;DHT22;114;48.260;10.988;2023-07-09T05:01:50;17.20;38.30
262;DHT22;114;48.260;10.988;2023-07-09T05:04:16;17.50;32.60
262;DHT22;114;48.260;10.988;2023-07-09T05:06:42;17.60;29.60
262;DHT22;114;48.260;10.988;2023-07-09T05:09:08;17.70;28.50
262;DHT22;114;48.260;10.988;2023-07-09T05:11:35;17.80;28.90
262;DHT22;114;48.260;10.988;2023-07-09T05:14:02;18.10;29.50
262;DHT22;114;48.260;10.988;2023-07-09T05:16:29;18.80;21.50
262;DHT22;114;48.260;10.988;2023-07-09T05:18:55;18.70;19.20
262;DHT22;114;48.260;10.988;2023-07-09T05:21:20;18.60;18.40
262;DHT22;114;48.260;10.988;2023-07-09T05:23:46;18.60;18.10
262;DHT22;114;48.260;10.988;2023-07-09T05:26:12;18.60;17.60
262;DHT22;114;48.260;10.988;2023-07-09T05:28:38;18.60;17.60
262;DHT22;114;48.260;10.988;2023-07-09T05:31:06;18.70;17.30
262;DHT22;114;48.260;10.988;2023-07-09T05:33:32;18.80;15.40
262;DHT22;114;48.260;10.988;2023-07-09T05:35:58;18.90;15.20
262;DHT22;114;48.260;10.988;2023-07-09T05:38:24;19.00;14.30
262;DHT22;114;48.260;10.988;2023-07-09T05:41:02;19.10;13.40
262;DHT22;114;48.260;10.988;2023-07-09T05:43:29;19.10;13.60
262;DHT22;114;48.260;10.988;2023-07-09T05:45:55;19.20;13.40
262;DHT22;114;48.260;10.988;2023-07-09T05:48:20;19.50;11.20
262;DHT22;114;48.260;10.988;2023-07-09T05:50:48;19.70;9.90
262;DHT22;114;48.260;10.988;2023-07-09T05:53:14;19.90;10.10
262;DHT22;114;48.260;10.988;2023-07-09T05:55:40;20.10;9.50
262;DHT22;114;48.260;10.988;2023-07-09T05:58:05;20.30;9.20
262;DHT22;114;48.260;10.988;2023-07-09T06:00:31;20.60;8.40
262;DHT22;114;48.260;10.988;2023-07-09T06:02:57;20.90;6.10
262;DHT22;114;48.260;10.988;2023-07-09T06:05:23;21.20;4.90
262;DHT22;114;48.260;10.988;2023-07-09T06:07:48;21.40;4.20
262;DHT22;114;48.260;10.988;2023-07-09T06:10:14;21.70;1.80
262;DHT22;114;48.260;10.988;2023-07-09T06:12:40;21.90;1.00
262;DHT22;114;48.260;10.988;2023-07-09T06:15:06;22.00;1.00
262;DHT22;114;48.260;10.988;2023-07-09T06:17:32;22.10;1.00
262;DHT22;114;48.260;10.988;2023-07-09T06:19:58;22.30;1.00
262;DHT22;114;48.260;10.988;2023-07-09T06:22:24;22.50;1.00
262;DHT22;114;48.260;10.988;2023-07-09T06:24:49;22.70;1.00
262;DHT22;114;48.260;10.988;2023-07-09T06:27:15;22.90;1.00
262;DHT22;114;48.260;10.988;2023-07-09T06:29:40;23.00;1.00
262;DHT22;114;48.260;10.988;2023-07-09T06:32:06;23.30;1.00
262;DHT22;114;48.260;10.988;2023-07-09T06:34:32;23.60;1.00
262;DHT22;114;48.260;10.988;2023-07-09T06:36:58;23.90;1.00
262;DHT22;114;48.260;10.988;2023-07-09T06:39:23;24.10;1.00
262;DHT22;114;48.260;10.988;2023-07-09T06:41:49;24.20;1.00
262;DHT22;114;48.260;10.988;2023-07-09T06:44:15;24.20;1.00
262;DHT22;114;48.260;10.988;2023-07-09T06:46:40;24.20;1.00
262;DHT22;114;48.260;10.988;2023-07-09T06:49:06;24.20;1.00
262;DHT22;114;48.260;10.988;2023-07-09T06:51:32;24.30;1.00
262;DHT22;114;48.260;10.988;2023-07-09T06:53:58;24.50;1.00
262;DHT22;114;48.260;10.988;2023-07-09T06:56:24;24.70;1.00
262;DHT22;114;48.260;10.988;2023-07-09T06:58:50;24.90;1.00
262;DHT22;114;48.260;10.988;2023-07-09T07:01:15;25.00;1.00
262;DHT22;114;48.260;10.988;2023-07-09T07:03:41;25.20;1.00
262;DHT22;114;48.260;10.988;2023-07-09T07:06:07;25.20;1.00
262;DHT22;114;48.260;10.988;2023-07-09T07:08:33;25.30;1.00
262;DHT22;114;48.260;10.988;2023-07-09T07:11:02;25.60;1.00
262;DHT22;114;48.260;10.988;2023-07-09T07:13:39;25.80;1.00
262;DHT22;114;48.260;10.988;2023-07-09T07:16:10;25.90;1.00
262;DHT22;114;48.260;10.988;2023-07-09T07:18:37;25.90;1.00
262;DHT22;114;48.260;10.988;2023-07-09T07:21:03;26.20;1.00
262;DHT22;114;48.260;10.988;2023-07-09T07:23:29;26.50;1.00
262;DHT22;114;48.260;10.988;2023-07-09T07:25:55;26.60;1.00
262;DHT22;114;48.260;10.988;2023-07-09T07:28:21;26.70;1.00
262;DHT22;114;48.260;10.988;2023-07-09T07:30:58;26.80;1.00
262;DHT22;114;48.260;10.988;2023-07-09T07:33:24;27.20;1.00
262;DHT22;114;48.260;10.988;2023-07-09T07:35:49;27.30;1.00
262;DHT22;114;48.260;10.988;2023-07-09T07:38:15;27.20;1.00
262;DHT22;114;48.260;10.988;2023-07-09T07:40:44;27.40;1.00
262;DHT22;114;48.260;10.988;2023-07-09T07:43:10;27.60;1.00
262;DHT22;114;48.260;10.988;2023-07-09T07:45:39;27.80;1.00
262;DHT22;114;48.260;10.988;2023-07-09T07:48:05;28.00;1.00
262;DHT22;114;48.260;10.988;2023-07-09T07:50:31;28.00;1.00
262;DHT22;114;48.260;10.988;2023-07-09T07:52:57;28.10;1.00
262;DHT22;114;48.260;10.988;2023-07-09T07:55:23;28.30;1.00
262;DHT22;114;48.260;10.988;2023-07-09T07:57:48;28.30;1.00
262;DHT22;114;48.260;10.988;2023-07-09T08:00:15;28.40;1.00
262;DHT22;114;48.260;10.988;2023-07-09T08:02:41;28.60;1.00
262;DHT22;114;48.260;10.988;2023-07-09T08:05:07;28.60;1.00
262;DHT22;114;48.260;10.988;2023-07-09T08:07:33;28.70;1.00
262;DHT22;114;48.260;10.988;2023-07-09T08:09:58;28.70;1.00
262;DHT22;114;48.260;10.988;2023-07-09T08:12:24;28.60;1.00
262;DHT22;114;48.260;10.988;2023-07-09T08:14:50;28.70;1.00
262;DHT22;114;48.260;10.988;2023-07-09T08:17:15;28.90;1.00
262;DHT22;114;48.260;10.988;2023-07-09T08:19:46;29.10;1.00
262;DHT22;114;48.260;10.988;2023-07-09T08:22:12;29.10;1.00
262;DHT22;114;48.260;10.988;2023-07-09T08:24:38;29.20;1.00
262;DHT22;114;48.260;10.988;2023-07-09T08:27:06;29.40;1.00
262;DHT22;114;48.260;10.988;2023-07-09T08:29:32;29.50;1.00
262;DHT22;114;48.260;10.988;2023-07-09T08:31:58;29.70;1.00
262;DHT22;114;48.260;10.988;2023-07-09T08:34:24;29.70;1.00
262;DHT22;114;48.260;10.988;2023-07-09T08:36:49;29.70;1.00
262;DHT22;114;48.260;10.988;2023-07-09T08:39:15;29.60;1.00
262;DHT22;114;48.260;10.988;2023-07-09T08:41:49;29.70;1.00
262;DHT22;114;48.260;10.988;2023-07-09T08:45:00;29.60;1.00
262;DHT22;114;48.260;10.988;2023-07-09T08:50:09;29.80;1.00
262;DHT22;114;48.260;10.988;2023-07-09T08:52:41;30.00;1.00
262;DHT22;114;48.260;10.988;2023-07-09T08:55:24;29.90;1.00
262;DHT22;114;48.260;10.988;2023-07-09T08:57:58;30.00;1.00
262;DHT22;114;48.260;10.988;2023-07-09T09:00:35;30.40;1.00
262;DHT22;114;48.260;10.988;2023-07-09T09:03:05;30.40;1.00
262;DHT22;114;48.260;10.988;2023-07-09T09:05:33;30.30;1.00
262;DHT22;114;48.260;10.988;2023-07-09T09:13:43;30.50;1.00
262;DHT22;114;48.260;10.988;2023-07-09T09:16:18;30.70;1.00
262;DHT22;114;48.260;10.988;2023-07-09T09:18:47;30.60;1.00
262;DHT22;114;48.260;10.988;2023-07-09T09:21:32;30.40;1.00
262;DHT22;114;48.260;10.988;2023-07-09T09:24:14;30.40;1.00
262;DHT22;114;48.260;10.988;2023-07-09T09:26:42;30.20;1.00
262;DHT22;114;48.260;10.988;2023-07-09T09:29:14;30.70;1.00
262;DHT22;114;48.260;10.988;2023-07-09T09:31:41;30.80;1.00
262;DHT22;114;48.260;10.988;2023-07-09T09:34:21;30.70;1.00
262;DHT22;114;48.260;10.988;2023-07-09T09:36:47;31.10;1.00
262;DHT22;114;48.260;10.988;2023-07-09T09:39:13;31.00;1.00
262;DHT22;114;48.260;10.988;2023-07-09T09:41:39;31.30;1.00
262;DHT22;114;48.260;10.988;2023-07-09T09:44:05;31.40;1.00
262;DHT22;114;48.260;10.988;2023-07-09T09:46:32;31.40;1.00
262;DHT22;114;48.260;10.988;2023-07-09T09:49:02;31.30;1.00
262;DHT22;114;48.260;10.988;2023-07-09T09:51:28;31.50;1.00
262;DHT22;114;48.260;10.988;2023-07-09T09:54:00;31.60;1.00
262;DHT22;114;48.260;10.988;2023-07-09T09:56:36;31.60;1.00
262;DHT22;114;48.260;10.988;2023-07-09T09:59:03;31.60;1.00
262;DHT22;114;48.260;10.988;2023-07-09T10:01:34;31.70;1.00
262;DHT22;114;48.260;10.988;2023-07-09T10:04:03;31.90;1.00
262;DHT22;114;48.260;10.988;2023-07-09T10:06:50;31.80;1.00
262;DHT22;114;48.260;10.988;2023-07-09T10:17:22;32.10;1.00
262;DHT22;114;48.260;10.988;2023-07-09T10:20:00;32.30;1.00
262;DHT22;114;48.260;10.988;2023-07-09T10:29:07;32.70;1.00
262;DHT22;114;48.260;10.988;2023-07-09T10:34:28;32.40;1.00
262;DHT22;114;48.260;10.988;2023-07-09T10:39:41;32.50;1.00
262;DHT22;114;48.260;10.988;2023-07-09T10:42:35;32.90;1.00
262;DHT22;114;48.260;10.988;2023-07-09T10:45:12;33.20;1.00
262;DHT22;114;48.260;10.988;2023-07-09T10:47:46;33.20;1.00
262;DHT22;114;48.260;10.988;2023-07-09T10:50:31;32.70;1.00
262;DHT22;114;48.260;10.988;2023-07-09T10:53:09;32.80;1.00
262;DHT22;114;48.260;10.988;2023-07-09T10:55:47;32.80;1.00
262;DHT22;114;48.260;10.988;2023-07-09T10:58:31;33.20;1.00
262;DHT22;114;48.260;10.988;2023-07-09T11:00:59;33.10;1.00
262;DHT22;114;48.260;10.988;2023-07-09T11:03:49;33.20;1.00
262;DHT22;114;48.260;10.988;2023-07-09T11:06:43;33.40;1.00
262;DHT22;114;48.260;10.988;2023-07-09T11:11:54;34.40;1.00
262;DHT22;114;48.260;10.988;2023-07-09T11:14:26;35.00;1.00
262;DHT22;114;48.260;10.988;2023-07-09T11:16:55;35.00;1.00
262;DHT22;114;48.260;10.988;2023-07-09T11:19:23;35.60;1.00
262;DHT22;114;48.260;10.988;2023-07-09T11:22:16;34.90;1.00
262;DHT22;114;48.260;10.988;2023-07-09T11:24:48;33.70;1.00
262;DHT22;114;48.260;10.988;2023-07-09T11:27:24;33.80;1.00
262;DHT22;114;48.260;10.988;2023-07-09T11:30:00;34.90;1.00
262;DHT22;114;48.260;10.988;2023-07-09T11:32:28;35.40;1.00
262;DHT22;114;48.260;10.988;2023-07-09T11:34:54;36.10;1.00
262;DHT22;114;48.260;10.988;2023-07-09T11:37:25;36.50;1.00
262;DHT22;114;48.260;10.988;2023-07-09T11:39:51;36.90;1.00
262;DHT22;114;48.260;10.988;2023-07-09T11:45:16;36.10;1.00
262;DHT22;114;48.260;10.988;2023-07-09T11:50:24;36.50;1.00
262;DHT22;114;48.260;10.988;2023-07-09T11:52:56;37.00;1.00
262;DHT22;114;48.260;10.988;2023-07-09T11:57:56;37.80;1.00
262;DHT22;114;48.260;10.988;2023-07-09T12:00:22;37.80;1.00
262;DHT22;114;48.260;10.988;2023-07-09T12:02:50;37.90;1.00
262;DHT22;114;48.260;10.988;2023-07-09T12:05:26;38.20;1.00
262;DHT22;114;48.260;10.988;2023-07-09T12:07:52;38.40;1.00
262;DHT22;114;48.260;10.988;2023-07-09T12:10:24;38.50;1.00
262;DHT22;114;48.260;10.988;2023-07-09T12:12:57;38.70;1.00
262;DHT22;114;48.260;10.988;2023-07-09T12:15:28;38.90;1.00
262;DHT22;114;48.260;10.988;2023-07-09T12:17:59;38.90;1.00
262;DHT22;114;48.260;10.988;2023-07-09T12:20:29;39.10;1.00
262;DHT22;114;48.260;10.988;2023-07-09T12:22:55;39.20;1.00
262;DHT22;114;48.260;10.988;2023-07-09T12:25:24;38.40;1.00
262;DHT22;114;48.260;10.988;2023-07-09T12:27:50;38.50;1.00
262;DHT22;114;48.260;10.988;2023-07-09T12:30:16;38.70;1.00
262;DHT22;114;48.260;10.988;2023-07-09T12:32:49;39.00;1.00
262;DHT22;114;48.260;10.988;2023-07-09T12:35:16;39.10;1.00
262;DHT22;114;48.260;10.988;2023-07-09T12:37:43;40.40;1.00
262;DHT22;114;48.260;10.988;2023-07-09T12:40:14;41.10;1.00
262;DHT22;114;48.260;10.988;2023-07-09T12:42:42;41.90;1.00
262;DHT22;114;48.260;10.988;2023-07-09T12:45:15;43.10;1.00
262;DHT22;114;48.260;10.988;2023-07-09T12:47:42;43.80;1.00
262;DHT22;114;48.260;10.988;2023-07-09T12:52:55;44.70;1.00
262;DHT22;114;48.260;10.988;2023-07-09T12:55:26;44.70;1.00
262;DHT22;114;48.260;10.988;2023-07-09T12:57:56;44.20;1.00
262;DHT22;114;48.260;10.988;2023-07-09T13:00:22;44.90;1.00
262;DHT22;114;48.260;10.988;2023-07-09T13:02:54;45.20;1.00
262;DHT22;114;48.260;10.988;2023-07-09T13:05:23;45.20;1.00
262;DHT22;114;48.260;10.988;2023-07-09T13:07:51;44.70;1.00
262;DHT22;114;48.260;10.988;2023-07-09T13:10:32;45.10;1.00
262;DHT22;114;48.260;10.988;2023-07-09T13:13:04;45.50;1.00
262;DHT22;114;48.260;10.988;2023-07-09T13:15:44;44.80;1.00
262;DHT22;114;48.260;10.988;2023-07-09T13:18:12;44.10;1.00
262;DHT22;114;48.260;10.988;2023-07-09T13:20:40;44.30;1.00
262;DHT22;114;48.260;10.988;2023-07-09T13:23:23;44.40;1.00
262;DHT22;114;48.260;10.988;2023-07-09T13:25:49;44.30;1.00
262;DHT22;114;48.260;10.988;2023-07-09T13:28:21;44.60;1.00
262;DHT22;114;48.260;10.988;2023-07-09T13:30:48;45.10;1.00
262;DHT22;114;48.260;10.988;2023-07-09T13:33:17;45.00;1.00
262;DHT22;114;48.260;10.988;2023-07-09T13:35:44;45.50;1.00
262;DHT22;114;48.260;10.988;2023-07-09T13:38:17;45.90;1.00
262;DHT22;114;48.260;10.988;2023-07-09T13:40:45;46.10;1.00
262;DHT22;114;48.260;10.988;2023-07-09T13:43:18;46.00;1.00
262;DHT22;114;48.260;10.988;2023-07-09T13:45:45;46.40;1.00
262;DHT22;114;48.260;10.988;2023-07-09T13:48:17;46.10;1.00
262;DHT22;114;48.260;10.988;2023-07-09T13:50:45;45.90;1.00
262;DHT22;114;48.260;10.988;2023-07-09T13:53:23;45.90;1.00
262;DHT22;114;48.260;10.988;2023-07-09T13:55:50;46.00;1.00
262;DHT22;114;48.260;10.988;2023-07-09T13:58:18;46.10;1.00
262;DHT22;114;48.260;10.988;2023-07-09T14:00:46;45.70;1.00
262;DHT22;114;48.260;10.988;2023-07-09T14:03:31;45.90;1.00
262;DHT22;114;48.260;10.988;2023-07-09T14:05:57;45.30;1.00
262;DHT22;114;48.260;10.988;2023-07-09T14:08:23;45.50;1.00
262;DHT22;114;48.260;10.988;2023-07-09T14:10:49;45.70;1.00
262;DHT22;114;48.260;10.988;2023-07-09T14:13:18;46.10;1.00
262;DHT22;114;48.260;10.988;2023-07-09T14:15:44;46.50;1.00
262;DHT22;114;48.260;10.988;2023-07-09T14:18:21;46.40;1.00
262;DHT22;114;48.260;10.988;2023-07-09T14:20:48;46.80;1.00
262;DHT22;114;48.260;10.988;2023-07-09T14:23:16;46.50;1.00
262;DHT22;114;48.260;10.988;2023-07-09T14:25:43;46.70;1.00
262;DHT22;114;48.260;10.988;2023-07-09T14:28:15;46.50;1.00
262;DHT22;114;48.260;10.988;2023-07-09T14:30:41;46.40;1.00
262;DHT22;114;48.260;10.988;2023-07-09T14:33:14;46.00;1.00
262;DHT22;114;48.260;10.988;2023-07-09T14:35:40;46.00;1.00
262;DHT22;114;48.260;10.988;2023-07-09T14:38:21;46.10;1.00
262;DHT22;114;48.260;10.988;2023-07-09T14:40:49;46.10;1.00
262;DHT22;114;48.260;10.988;2023-07-09T14:43:15;45.40;1.00
262;DHT22;114;48.260;10.988;2023-07-09T14:45:41;45.00;1.00
262;DHT22;114;48.260;10.988;2023-07-09T14:48:12;45.10;1.00
262;DHT22;114;48.260;10.988;2023-07-09T14:50:39;44.90;1.00
262;DHT22;114;48.260;10.988;2023-07-09T14:53:15;44.80;1.00
262;DHT22;114;48.260;10.988;2023-07-09T14:55:43;45.50;1.00
262;DHT22;114;48.260;10.988;2023-07-09T14:58:21;45.90;1.00
262;DHT22;114;48.260;10.988;2023-07-09T15:00:48;45.10;1.00
262;DHT22;114;48.260;10.988;2023-07-09T15:03:22;45.70;1.00
262;DHT22;114;48.260;10.988;2023-07-09T15:05:48;45.50;1.00
262;DHT22;114;48.260;10.988;2023-07-09T15:08:16;44.70;1.00
262;DHT22;114;48.260;10.988;2023-07-09T15:10:42;44.70;1.00
262;DHT22;114;48.260;10.988;2023-07-09T15:13:17;44.00;1.00
262;DHT22;114;48.260;10.988;2023-07-09T15:15:43;43.50;1.00
262;DHT22;114;48.260;10.988;2023-07-09T15:18:13;44.30;1.00
262;DHT22;114;48.260;10.988;2023-07-09T15:20:41;45.30;1.00
262;DHT22;114;48.260;10.988;2023-07-09T15:23:09;45.40;1.00
262;DHT22;114;48.260;10.988;2023-07-09T15:25:35;44.60;1.00
262;DHT22;114;48.260;10.988;2023-07-09T15:28:00;44.80;1.00
262;DHT22;114;48.260;10.988;2023-07-09T15:30:28;44.70;1.00
262;DHT22;114;48.260;10.988;2023-07-09T15:32:59;44.70;1.00
262;DHT22;114;48.260;10.988;2023-07-09T15:35:31;45.20;1.00
262;DHT22;114;48.260;10.988;2023-07-09T15:37:57;44.90;1.00
262;DHT22;114;48.260;10.988;2023-07-09T15:40:28;44.10;1.00
262;DHT22;114;48.260;10.988;2023-07-09T15:43:05;43.60;1.00
262;DHT22;114;48.260;10.988;2023-07-09T15:45:31;43.20;1.00
262;DHT22;114;48.260;10.988;2023-07-09T15:47:57;43.10;1.00
262;DHT22;114;48.260;10.988;2023-07-09T15:50:26;42.50;1.00
262;DHT22;114;48.260;10.988;2023-07-09T15:52:52;42.10;1.00
262;DHT22;114;48.260;10.988;2023-07-09T15:55:21;42.00;1.00
262;DHT22;114;48.260;10.988;2023-07-09T15:57:47;41.10;1.00
262;DHT22;114;48.260;10.988;2023-07-09T16:00:34;41.20;1.00
262;DHT22;114;48.260;10.988;2023-07-09T16:03:00;41.90;1.00
262;DHT22;114;48.260;10.988;2023-07-09T16:05:29;42.90;1.00
262;DHT22;114;48.260;10.988;2023-07-09T16:07:57;43.40;1.00
262;DHT22;114;48.260;10.988;2023-07-09T16:10:25;44.20;1.00
262;DHT22;114;48.260;10.988;2023-07-09T16:12:51;44.70;1.00
262;DHT22;114;48.260;10.988;2023-07-09T16:15:22;45.10;1.00
262;DHT22;114;48.260;10.988;2023-07-09T16:17:49;45.30;1.00
262;DHT22;114;48.260;10.988;2023-07-09T16:20:18;45.50;1.00
262;DHT22;114;48.260;10.988;2023-07-09T16:22:47;45.70;1.00
262;DHT22;114;48.260;10.988;2023-07-09T16:25:17;45.50;1.00
262;DHT22;114;48.260;10.988;2023-07-09T16:27:44;45.60;1.00
262;DHT22;114;48.260;10.988;2023-07-09T16:30:22;45.90;1.00
262;DHT22;114;48.260;10.988;2023-07-09T16:32:49;45.90;1.00
262;DHT22;114;48.260;10.988;2023-07-09T16:35:18;45.20;1.00
262;DHT22;114;48.260;10.988;2023-07-09T16:37:45;44.90;1.00
262;DHT22;114;48.260;10.988;2023-07-09T16:42:48;44.70;1.00
262;DHT22;114;48.260;10.988;2023-07-09T16:45:15;44.40;1.00
262;DHT22;114;48.260;10.988;2023-07-09T16:47:43;44.20;1.00
262;DHT22;114;48.260;10.988;2023-07-09T16:50:14;43.60;1.00
262;DHT22;114;48.260;10.988;2023-07-09T16:52:41;42.80;1.00
262;DHT22;114;48.260;10.988;2023-07-09T16:55:09;41.80;1.00
262;DHT22;114;48.260;10.988;2023-07-09T16:57:38;40.20;1.00
262;DHT22;114;48.260;10.988;2023-07-09T17:00:26;39.80;1.00
262;DHT22;114;48.260;10.988;2023-07-09T17:02:54;40.60;1.00
262;DHT22;114;48.260;10.988;2023-07-09T17:05:23;41.40;1.00
262;DHT22;114;48.260;10.988;2023-07-09T17:07:49;41.90;1.00
262;DHT22;114;48.260;10.988;2023-07-09T17:10:15;42.20;1.00
262;DHT22;114;48.260;10.988;2023-07-09T17:12:42;42.60;1.00
262;DHT22;114;48.260;10.988;2023-07-09T17:15:35;42.20;1.00
262;DHT22;114;48.260;10.988;2023-07-09T17:18:17;42.00;1.00
262;DHT22;114;48.260;10.988;2023-07-09T17:20:43;41.80;1.00
262;DHT22;114;48.260;10.988;2023-07-09T17:23:10;41.20;1.00
262;DHT22;114;48.260;10.988;2023-07-09T17:25:37;40.70;1.00
262;DHT22;114;48.260;10.988;2023-07-09T17:28:22;40.20;1.00
262;DHT22;114;48.260;10.988;2023-07-09T17:30:49;39.10;1.00
262;DHT22;114;48.260;10.988;2023-07-09T17:33:17;38.00;1.00